Time;durP1;ratioP1;P1;durP2;ratioP2;P2;SDS_P1;SDS_P2;PMS_P1;PMS_P2;Temp;Humidity;BMP_temperature;BMP_pressure;BME280_temperature;BME280_humidity;BME280_pressure;Samples;Min_cycle;Max_cycle;Signal;HPM_P1;HPM_P2
2024/04/13 00:01:22;;;;;;;3.40;1.60;;;22.60;67.30;;;;;;5368415;26;85882;-70
2024/04/13 00:03:50;;;;;;;2.22;1.80;;;22.60;67.30;;;;;;5335406;26;87442;-67
2024/04/13 00:06:17;;;;;;;2.63;1.45;;;22.60;67.20;;;;;;5336214;26;86001;-68
2024/04/13 00:08:43;;;;;;;3.22;1.63;;;22.60;67.30;;;;;;5337168;26;86474;-68
2024/04/13 00:11:09;;;;;;;3.00;1.65;;;22.60;67.30;;;;;;5367690;26;85188;-68
2024/04/13 00:13:38;;;;;;;2.55;1.60;;;22.60;67.10;;;;;;5364883;26;86553;-69
2024/04/13 00:16:04;;;;;;;2.05;1.50;;;22.60;67.00;;;;;;5402900;26;86912;-67
2024/04/13 00:18:33;;;;;;;1.85;1.70;;;22.70;66.70;;;;;;5400381;26;86940;-66
2024/04/13 00:21:00;;;;;;;4.55;2.15;;;22.60;66.50;;;;;;5370482;26;86824;-67
2024/04/13 00:23:26;;;;;;;2.38;1.60;;;22.70;66.80;;;;;;5401012;26;86714;-66
2024/04/13 00:25:53;;;;;;;3.28;1.95;;;22.70;67.00;;;;;;5358623;26;86543;-67
2024/04/13 00:28:19;;;;;;;2.35;1.38;;;22.60;66.60;;;;;;5327129;26;86201;-68
2024/04/13 00:30:46;;;;;;;2.55;1.75;;;22.60;66.90;;;;;;5366418;26;86207;-69
2024/04/13 00:33:12;;;;;;;3.83;1.50;;;22.60;67.10;;;;;;5338162;26;87074;-69
2024/04/13 00:35:39;;;;;;;1.63;1.30;;;22.60;66.80;;;;;;5365053;26;87196;-69
2024/04/13 00:38:05;;;;;;;2.33;1.83;;;22.60;67.30;;;;;;5368923;26;85423;-70
2024/04/13 00:40:31;;;;;;;1.75;1.50;;;22.60;67.10;;;;;;5337490;26;88974;-68
2024/04/13 00:43:11;;;;;;;1.67;1.40;;;22.60;66.90;;;;;;5366767;26;87964;-69
2024/04/13 00:45:44;;;;;;;1.75;1.50;;;22.60;66.50;;;;;;5327171;26;90009;-69
2024/04/13 00:48:22;;;;;;;2.25;1.77;;;22.60;66.60;;;;;;5369282;26;85835;-68
2024/04/13 00:50:53;;;;;;;2.60;1.70;;;22.60;66.50;;;;;;5337125;26;85986;-68
2024/04/13 00:53:21;;;;;;;2.38;1.48;;;22.60;66.80;;;;;;5362467;26;87326;-69
2024/04/13 00:55:47;;;;;;;1.83;1.73;;;22.60;66.80;;;;;;5356004;26;87911;-68
2024/04/13 00:58:14;;;;;;;2.30;1.83;;;22.60;66.60;;;;;;5402490;26;85841;-68
2024/04/13 01:00:44;;;;;;;2.38;1.77;;;22.60;66.70;;;;;;5401626;26;86423;-64
2024/04/13 01:03:10;;;;;;;3.33;2.00;;;22.60;66.90;;;;;;5401963;26;86542;-70
2024/04/13 01:05:36;;;;;;;1.63;1.52;;;22.60;66.50;;;;;;5398531;26;85786;-71
2024/04/13 01:08:04;;;;;;;1.88;1.67;;;22.70;66.30;;;;;;5400962;25;87051;-68
2024/04/13 01:10:30;;;;;;;3.85;1.50;;;22.60;66.40;;;;;;5398580;26;86273;-69
2024/04/13 01:12:57;;;;;;;2.55;1.58;;;22.60;66.40;;;;;;5368684;26;87758;-68
2024/04/13 01:15:27;;;;;;;1.38;1.23;;;22.60;66.10;;;;;;5402485;26;85729;-69
2024/04/13 01:17:54;;;;;;;1.67;1.30;;;22.60;66.40;;;;;;5401321;26;85738;-68
2024/04/13 01:20:20;;;;;;;2.08;1.75;;;22.60;66.40;;;;;;5367574;26;86408;-65
2024/04/13 01:22:47;;;;;;;2.38;1.48;;;22.60;66.30;;;;;;5376691;25;85929;-69
2024/04/13 01:25:17;;;;;;;3.28;2.20;;;22.60;66.20;;;;;;5367691;26;86418;-70
2024/04/13 01:27:43;;;;;;;2.15;1.58;;;22.60;66.10;;;;;;5365354;26;85949;-65
2024/04/13 01:30:13;;;;;;;2.13;1.60;;;22.60;66.00;;;;;;5337337;26;86863;-67
2024/04/13 01:32:39;;;;;;;2.30;1.45;;;22.60;66.10;;;;;;5367253;26;87927;-68
2024/04/13 01:35:12;;;;;;;2.05;1.70;;;22.70;66.10;;;;;;5302465;26;87384;-68
2024/04/13 01:37:38;;;;;;;1.58;1.33;;;22.70;65.80;;;;;;5367010;26;85907;-65
2024/04/13 01:40:08;;;;;;;2.40;1.35;;;22.60;65.80;;;;;;5367001;26;86448;-69
2024/04/13 01:42:41;;;;;;;1.80;1.70;;;22.70;65.70;;;;;;5365860;26;87757;-69
2024/04/13 01:45:06;;;;;;;2.60;1.83;;;22.60;65.50;;;;;;5336375;26;87222;-68
2024/04/13 01:47:33;;;;;;;1.50;1.40;;;22.60;65.70;;;;;;5365104;26;86311;-67
2024/04/13 01:49:59;;;;;;;1.70;1.48;;;22.60;65.50;;;;;;5319592;26;88749;-68
2024/04/13 01:52:25;;;;;;;3.03;1.58;;;22.60;65.50;;;;;;5339994;26;86135;-70
2024/04/13 01:54:51;;;;;;;2.45;1.92;;;22.60;65.90;;;;;;5363854;26;86710;-69
2024/04/13 01:57:18;;;;;;;2.67;1.63;;;22.60;65.70;;;;;;5369046;26;86696;-70
2024/04/13 01:59:45;;;;;;;3.53;1.63;;;22.60;65.70;;;;;;5338089;26;86182;-70
2024/04/13 02:02:11;;;;;;;1.67;1.48;;;22.60;65.50;;;;;;5369146;26;86712;-64
2024/04/13 02:04:37;;;;;;;1.88;1.30;;;22.60;65.90;;;;;;5345995;26;85878;-67
2024/04/13 02:07:07;;;;;;;1.85;1.65;;;22.60;65.80;;;;;;5405855;26;85912;-71
2024/04/13 02:09:33;;;;;;;1.73;1.25;;;22.50;66.00;;;;;;5344982;26;86476;-67
2024/04/13 02:12:02;;;;;;;1.63;1.38;;;22.60;65.90;;;;;;5403367;26;86920;-63
2024/04/13 02:14:29;;;;;;;1.63;1.42;;;22.60;65.70;;;;;;5372175;26;86927;-70
2024/04/13 02:16:55;;;;;;;2.05;1.33;;;22.60;65.50;;;;;;5371471;26;86216;-68
2024/04/13 02:19:21;;;;;;;2.88;1.38;;;22.60;65.50;;;;;;5359411;26;86591;-66
2024/04/13 02:21:48;;;;;;;1.55;1.23;;;22.50;65.80;;;;;;5398656;26;86990;-64
2024/04/13 02:24:14;;;;;;;2.38;1.60;;;22.60;65.90;;;;;;5403877;26;87318;-65
2024/04/13 02:26:41;;;;;;;1.60;1.35;;;22.60;65.40;;;;;;5403971;26;86213;-66
2024/04/13 02:29:07;;;;;;;2.33;1.70;;;22.60;65.70;;;;;;5343272;26;87697;-70
2024/04/13 02:31:33;;;;;;;2.47;1.52;;;22.60;65.50;;;;;;5368572;26;87348;-68
2024/04/13 02:33:59;;;;;;;2.22;1.80;;;22.50;65.40;;;;;;5403997;26;86452;-70
2024/04/13 02:36:25;;;;;;;2.17;1.80;;;22.60;65.40;;;;;;5372863;26;85704;-68
2024/04/13 02:38:51;;;;;;;1.90;1.50;;;22.60;65.40;;;;;;5368567;26;85536;-68
2024/04/13 02:41:19;;;;;;;1.85;1.30;;;22.60;65.30;;;;;;5401848;26;85793;-69
2024/04/13 02:43:46;;;;;;;2.08;1.50;;;22.60;65.30;;;;;;5371914;26;88145;-69
2024/04/13 02:46:12;;;;;;;2.20;1.42;;;22.60;65.40;;;;;;5371656;26;86377;-69
2024/04/13 02:48:42;;;;;;;1.83;1.48;;;22.60;65.40;;;;;;5341426;26;88164;-67
2024/04/13 02:51:09;;;;;;;3.17;1.95;;;22.60;65.10;;;;;;5370703;26;86738;-67
2024/04/13 02:53:36;;;;;;;2.47;1.50;;;22.50;65.40;;;;;;5369115;26;86917;-70
2024/04/13 02:56:07;;;;;;;2.67;1.30;;;22.60;65.40;;;;;;5330604;26;85493;-69
2024/04/13 02:58:37;;;;;;;2.05;1.50;;;22.60;65.20;;;;;;5370539;26;85965;-70
2024/04/13 03:01:03;;;;;;;2.20;1.45;;;22.60;65.20;;;;;;5381765;25;86651;-69
2024/04/13 03:03:30;;;;;;;1.75;1.27;;;22.50;65.20;;;;;;5403913;26;87165;-69
2024/04/13 03:06:01;;;;;;;1.90;1.55;;;22.60;65.40;;;;;;5370136;26;85898;-69
2024/04/13 03:09:01;;;;;;;1.65;1.55;;;22.60;65.10;;;;;;5401803;26;86303;-69
2024/04/13 03:11:27;;;;;;;2.38;1.35;;;22.60;64.80;;;;;;5369394;26;87857;-70
2024/04/13 03:13:54;;;;;;;1.75;1.40;;;22.60;64.80;;;;;;5401631;26;86843;-64
2024/04/13 03:16:21;;;;;;;2.00;1.30;;;22.60;64.90;;;;;;5344309;26;85850;-67
2024/04/13 03:18:48;;;;;;;3.15;1.70;;;22.60;64.80;;;;;;5335531;26;86369;-70
2024/04/13 03:21:14;;;;;;;1.40;1.30;;;22.60;64.70;;;;;;5368802;26;86650;-68
2024/04/13 03:23:41;;;;;;;1.52;1.30;;;22.60;64.70;;;;;;5367794;26;86573;-70
2024/04/13 03:26:08;;;;;;;2.13;1.60;;;22.60;65.10;;;;;;5334815;26;86471;-67
2024/04/13 03:28:35;;;;;;;1.63;1.38;;;22.70;64.80;;;;;;5326022;26;86339;-67
2024/04/13 03:31:01;;;;;;;2.90;1.48;;;22.60;64.60;;;;;;5367067;26;86552;-69
2024/04/13 03:33:27;;;;;;;1.65;1.30;;;22.60;64.70;;;;;;5368752;26;86746;-70
2024/04/13 03:35:54;;;;;;;1.40;1.30;;;22.60;64.80;;;;;;5368563;26;87230;-69
2024/04/13 03:38:19;;;;;;;1.35;1.25;;;22.60;64.60;;;;;;5366775;26;86161;-69
2024/04/13 03:40:46;;;;;;;1.98;1.42;;;22.60;64.70;;;;;;5368207;26;86636;-70
2024/04/13 03:43:14;;;;;;;2.15;1.55;;;22.60;64.40;;;;;;5369874;26;87075;-69
2024/04/13 03:45:41;;;;;;;2.95;1.00;;;22.60;64.50;;;;;;5368127;26;86761;-69
2024/04/13 03:48:07;;;;;;;2.08;1.33;;;22.60;64.40;;;;;;5366030;26;85828;-65
2024/04/13 03:50:39;;;;;;;1.58;1.35;;;22.60;64.50;;;;;;5334201;26;86293;-65
2024/04/13 03:53:05;;;;;;;1.30;1.20;;;22.60;64.50;;;;;;5367809;26;86524;-69
2024/04/13 03:55:31;;;;;;;1.95;1.40;;;22.60;64.60;;;;;;5365728;26;86186;-70
2024/04/13 03:57:56;;;;;;;1.55;1.08;;;22.60;64.70;;;;;;5390178;25;85649;-65
2024/04/13 04:00:22;;;;;;;1.48;1.02;;;22.60;64.90;;;;;;5402848;26;86853;-68
2024/04/13 04:02:48;;;;;;;1.40;1.30;;;22.60;64.80;;;;;;5402954;26;87483;-66
2024/04/13 04:05:14;;;;;;;1.33;1.23;;;22.60;64.60;;;;;;5397307;26;85419;-66
2024/04/13 04:07:40;;;;;;;1.35;1.10;;;22.60;64.60;;;;;;5402698;26;86283;-70
2024/04/13 04:10:06;;;;;;;1.77;1.45;;;22.60;64.40;;;;;;5403648;26;86596;-65
2024/04/13 04:12:32;;;;;;;1.40;1.20;;;22.60;64.60;;;;;;5336301;26;89329;-67
2024/04/13 04:14:58;;;;;;;1.90;1.48;;;22.50;64.70;;;;;;5367103;26;85606;-66
2024/04/13 04:17:25;;;;;;;2.10;1.88;;;22.50;65.00;;;;;;5366826;26;85015;-69
2024/04/13 04:19:51;;;;;;;1.20;1.10;;;22.50;64.80;;;;;;5335752;26;86591;-69
2024/04/13 04:22:16;;;;;;;1.95;1.40;;;22.50;64.60;;;;;;5365427;26;86033;-64
2024/04/13 04:24:42;;;;;;;1.10;1.00;;;22.50;64.80;;;;;;5365355;26;87424;-68
2024/04/13 04:27:09;;;;;;;2.10;1.50;;;22.50;64.60;;;;;;5307508;26;85906;-67
2024/04/13 04:29:37;;;;;;;1.70;1.55;;;22.50;64.90;;;;;;5368572;26;85891;-66
2024/04/13 04:32:02;;;;;;;1.60;1.45;;;22.50;64.80;;;;;;5335637;26;85946;-67
2024/04/13 04:34:30;;;;;;;1.35;1.25;;;22.40;64.70;;;;;;5335901;26;86161;-68
2024/04/13 04:36:57;;;;;;;1.95;1.38;;;22.50;64.80;;;;;;5366756;26;86315;-71
2024/04/13 04:39:23;;;;;;;1.70;1.42;;;22.50;64.60;;;;;;5366700;26;87075;-65
2024/04/13 04:41:48;;;;;;;1.42;1.20;;;22.50;64.60;;;;;;5401985;26;86900;-68
2024/04/13 04:44:15;;;;;;;1.95;1.40;;;22.50;64.20;;;;;;5402486;26;86007;-67
2024/04/13 04:46:40;;;;;;;1.80;1.33;;;22.50;64.30;;;;;;5366572;26;86930;-69
2024/04/13 04:49:06;;;;;;;1.40;1.20;;;22.50;64.50;;;;;;5366981;26;88392;-66
2024/04/13 04:51:33;;;;;;;1.50;1.30;;;22.50;64.60;;;;;;5368520;26;87465;-68
2024/04/13 04:53:59;;;;;;;1.35;1.15;;;22.50;65.00;;;;;;5367548;26;85830;-70
2024/04/13 04:56:30;;;;;;;1.80;1.17;;;22.40;64.70;;;;;;5400337;26;86156;-70
2024/04/13 04:58:56;;;;;;;1.38;1.23;;;22.40;64.70;;;;;;5396876;26;86727;-68
2024/04/13 05:01:22;;;;;;;3.53;1.38;;;22.40;64.90;;;;;;5399255;26;86286;-65
2024/04/13 05:03:48;;;;;;;1.65;1.23;;;22.40;64.80;;;;;;5398081;26;86210;-68
2024/04/13 05:06:14;;;;;;;1.50;1.38;;;22.40;64.80;;;;;;5404045;26;85664;-69
2024/04/13 05:08:56;;;;;;;1.17;1.08;;;22.40;64.80;;;;;;5369598;26;87071;-69
2024/04/13 05:11:22;;;;;;;1.60;1.42;;;22.40;64.60;;;;;;5331277;26;88378;-66
2024/04/13 05:13:48;;;;;;;2.13;1.35;;;22.40;64.70;;;;;;5332529;26;86661;-70
2024/04/13 05:16:14;;;;;;;1.45;1.35;;;22.30;65.00;;;;;;5361320;26;85671;-68
2024/04/13 05:18:40;;;;;;;1.23;1.10;;;22.40;65.20;;;;;;5335551;26;86210;-67
2024/04/13 05:21:06;;;;;;;1.63;1.30;;;22.40;65.00;;;;;;5368639;26;86477;-65
2024/04/13 05:23:33;;;;;;;1.40;1.30;;;22.40;64.90;;;;;;5333798;26;86207;-69
2024/04/13 05:25:59;;;;;;;1.65;1.33;;;22.40;64.70;;;;;;5333983;26;86457;-70
2024/04/13 05:28:27;;;;;;;1.90;1.38;;;22.30;64.70;;;;;;5335094;26;88098;-70
2024/04/13 05:30:56;;;;;;;1.30;1.20;;;22.30;65.30;;;;;;5332645;26;87707;-67
2024/04/13 05:33:26;;;;;;;1.58;1.20;;;22.20;65.20;;;;;;5333300;26;85912;-67
2024/04/13 05:35:52;;;;;;;1.38;1.27;;;22.30;65.50;;;;;;5364719;26;86070;-68
2024/04/13 05:38:19;;;;;;;2.08;1.35;;;22.20;65.30;;;;;;5332952;26;88359;-68
2024/04/13 05:40:45;;;;;;;1.45;1.15;;;22.20;65.60;;;;;;5333586;26;86786;-70
2024/04/13 05:43:12;;;;;;;1.10;1.00;;;22.20;65.70;;;;;;5329249;26;86575;-68
2024/04/13 05:45:40;;;;;;;1.83;1.67;;;22.20;65.70;;;;;;5365924;26;85783;-68
2024/04/13 05:48:06;;;;;;;1.77;1.45;;;22.20;65.80;;;;;;5366248;26;86177;-68
2024/04/13 05:50:31;;;;;;;1.67;1.40;;;22.20;65.60;;;;;;5387676;25;86612;-65
2024/04/13 05:52:58;;;;;;;2.65;1.50;;;22.30;65.40;;;;;;5401202;26;85680;-69
2024/04/13 05:55:24;;;;;;;1.85;1.20;;;22.30;65.30;;;;;;5369599;26;86343;-68
2024/04/13 05:57:49;;;;;;;1.40;1.20;;;22.40;64.80;;;;;;5399633;26;86284;-68
2024/04/13 06:00:15;;;;;;;1.30;1.20;;;22.40;64.60;;;;;;5399895;26;87346;-69
2024/04/13 06:02:42;;;;;;;2.20;1.58;;;22.40;64.90;;;;;;5339320;26;86949;-70
2024/04/13 06:05:09;;;;;;;1.55;1.42;;;22.50;64.60;;;;;;5332257;26;86102;-69
2024/04/13 06:07:34;;;;;;;1.98;1.60;;;22.50;65.10;;;;;;5334470;26;86528;-68
2024/04/13 06:10:01;;;;;;;2.92;1.80;;;22.60;65.30;;;;;;5333658;26;90250;-71
2024/04/13 06:12:29;;;;;;;2.08;1.63;;;22.60;65.60;;;;;;5335225;26;85345;-69
2024/04/13 06:14:56;;;;;;;1.98;1.48;;;22.70;65.60;;;;;;5331495;26;86453;-69
2024/04/13 06:17:22;;;;;;;3.15;2.38;;;22.80;65.90;;;;;;5386373;26;86623;-69
2024/04/13 06:19:49;;;;;;;6.15;1.40;;;22.70;65.20;;;;;;5399580;26;85550;-71
2024/04/13 06:22:20;;;;;;;2.33;1.52;;;22.60;64.20;;;;;;5367166;26;85690;-72
2024/04/13 06:24:46;;;;;;;3.55;1.83;;;22.70;64.40;;;;;;5394580;26;86138;-70
2024/04/13 06:27:12;;;;;;;3.25;1.63;;;22.70;63.40;;;;;;5399908;26;86908;-69
2024/04/13 06:29:38;;;;;;;3.95;1.80;;;22.60;63.60;;;;;;5366448;26;88292;-71
2024/04/13 06:32:04;;;;;;;2.63;1.70;;;22.50;64.10;;;;;;5391042;26;86217;-68
2024/04/13 06:34:30;;;;;;;3.08;2.13;;;22.40;64.20;;;;;;5332577;26;86411;-72
2024/04/13 06:36:57;;;;;;;6.55;1.85;;;22.40;64.50;;;;;;5364152;26;86024;-70
2024/04/13 06:39:24;;;;;;;6.70;2.22;;;22.40;64.70;;;;;;5330869;26;86569;-71
2024/04/13 06:41:50;;;;;;;3.72;2.83;;;22.30;64.40;;;;;;5327285;26;86024;-72
2024/04/13 06:44:16;;;;;;;10.13;3.53;;;22.30;64.60;;;;;;5333753;26;86358;-66
2024/04/13 06:46:42;;;;;;;10.35;2.90;;;22.30;64.70;;;;;;5366269;25;86525;-67
2024/04/13 06:49:08;;;;;;;8.25;3.40;;;22.30;65.00;;;;;;5368412;26;86849;-70
2024/04/13 06:51:35;;;;;;;10.65;4.03;;;22.30;64.60;;;;;;5367749;26;86562;-73
2024/04/13 06:54:01;;;;;;;8.60;2.50;;;22.40;64.50;;;;;;5337405;26;86393;-63
2024/04/13 06:56:28;;;;;;;7.80;2.83;;;22.40;65.00;;;;;;5337053;26;88460;-67
2024/04/13 06:58:54;;;;;;;6.05;2.20;;;22.60;64.80;;;;;;5369637;26;86415;-68
2024/04/13 07:01:21;;;;;;;7.72;2.20;;;22.60;64.40;;;;;;5329301;26;86051;-70
2024/04/13 07:03:46;;;;;;;4.90;2.83;;;22.80;64.10;;;;;;5340713;26;88255;-71
2024/04/13 07:06:12;;;;;;;3.15;2.03;;;22.80;63.70;;;;;;5359919;26;88022;-64
2024/04/13 07:08:38;;;;;;;4.72;2.20;;;22.80;63.30;;;;;;5363103;26;86333;-65
2024/04/13 07:11:04;;;;;;;12.65;3.92;;;22.90;62.90;;;;;;5334656;26;85931;-66
2024/04/13 07:13:29;;;;;;;8.45;2.92;;;22.90;62.50;;;;;;5363896;26;86130;-65
2024/04/13 07:15:56;;;;;;;9.65;3.17;;;23.00;62.60;;;;;;5364746;26;87672;-68
2024/04/13 07:18:22;;;;;;;10.43;3.72;;;23.00;62.50;;;;;;5367316;26;86761;-67
2024/04/13 07:20:49;;;;;;;14.13;4.90;;;23.00;62.30;;;;;;5368533;26;86005;-67
2024/04/13 07:23:16;;;;;;;10.65;3.88;;;22.90;62.70;;;;;;5334406;26;87731;-65
2024/04/13 07:25:45;;;;;;;15.70;4.47;;;22.90;62.90;;;;;;5363150;26;85992;-66
2024/04/13 07:28:11;;;;;;;13.15;4.25;;;22.90;63.00;;;;;;5332417;26;87177;-69
2024/04/13 07:30:36;;;;;;;11.55;4.20;;;23.00;62.80;;;;;;5364597;26;86469;-66
2024/04/13 07:33:03;;;;;;;13.00;4.38;;;22.90;63.00;;;;;;5364967;26;86125;-64
2024/04/13 07:35:29;;;;;;;12.77;4.03;;;23.00;62.70;;;;;;5359895;26;86259;-70
2024/04/13 07:37:55;;;;;;;14.13;4.27;;;23.10;62.50;;;;;;4410802;26;10000569;-67
2024/04/13 07:40:20;;;;;;;13.35;4.18;;;23.00;62.20;;;;;;5362751;26;87228;-66
2024/04/13 07:42:46;;;;;;;9.95;4.22;;;23.00;62.10;;;;;;5335688;26;86584;-69
2024/04/13 07:45:12;;;;;;;13.27;3.67;;;23.10;61.80;;;;;;5394452;26;85868;-68
2024/04/13 07:47:38;;;;;;;13.88;5.20;;;23.10;61.60;;;;;;5347095;26;86465;-69
2024/04/13 07:50:04;;;;;;;15.00;4.15;;;23.10;61.50;;;;;;5363020;26;87300;-69
2024/04/13 07:52:30;;;;;;;14.75;3.67;;;23.20;61.30;;;;;;5365966;25;86978;-70
2024/04/13 07:54:57;;;;;;;18.70;5.35;;;23.20;61.10;;;;;;5381382;26;86094;-68
2024/04/13 07:57:23;;;;;;;14.40;4.43;;;23.20;60.80;;;;;;5369085;25;86782;-65
2024/04/13 07:59:49;;;;;;;10.30;4.03;;;23.30;61.00;;;;;;5334064;26;86463;-66
2024/04/13 08:02:15;;;;;;;9.65;3.53;;;23.40;60.90;;;;;;5333580;26;86911;-69
2024/04/13 08:04:41;;;;;;;14.27;3.75;;;23.30;61.10;;;;;;5340826;26;87838;-68
2024/04/13 08:07:08;;;;;;;9.60;4.43;;;23.20;61.30;;;;;;5380391;26;86257;-68
2024/04/13 08:09:41;;;;;;;12.25;3.65;;;23.10;61.80;;;;;;5324710;26;86327;-65
2024/04/13 08:12:08;;;;;;;10.85;3.38;;;23.00;62.30;;;;;;5334308;26;87920;-67
2024/04/13 08:14:35;;;;;;;6.60;3.45;;;23.00;62.20;;;;;;5365342;26;86488;-69
2024/04/13 08:17:01;;;;;;;7.13;3.50;;;23.10;62.20;;;;;;5332713;26;86144;-66
2024/04/13 08:19:27;;;;;;;10.75;2.95;;;23.00;62.00;;;;;;5335225;26;86561;-67
2024/04/13 08:21:52;;;;;;;9.15;3.78;;;23.00;62.20;;;;;;5334442;26;88460;-68
2024/04/13 08:24:18;;;;;;;11.18;3.35;;;23.00;62.70;;;;;;5366323;26;87296;-69
2024/04/13 08:26:45;;;;;;;11.00;3.22;;;23.10;62.40;;;;;;5364717;26;86048;-69
2024/04/13 08:29:11;;;;;;;11.40;3.83;;;23.10;62.90;;;;;;5364573;26;88182;-66
2024/04/13 08:31:37;;;;;;;6.45;3.38;;;23.10;63.30;;;;;;5329798;26;89507;-59
2024/04/13 08:34:03;;;;;;;6.88;3.17;;;23.30;63.00;;;;;;5365385;26;86033;-59
2024/04/13 08:36:29;;;;;;;13.60;3.47;;;23.30;62.30;;;;;;5365807;26;85823;-60
2024/04/13 08:38:56;;;;;;;9.68;3.33;;;23.40;62.20;;;;;;5364841;26;90592;-60
2024/04/13 08:41:30;;;;;;;8.38;2.85;;;23.50;62.50;;;;;;5365167;26;88099;-58
2024/04/13 08:43:57;;;;;;;10.05;3.50;;;23.50;62.50;;;;;;5362341;26;85929;-59
2024/04/13 08:46:24;;;;;;;7.22;2.90;;;23.40;62.80;;;;;;5364534;26;85733;-60
2024/04/13 08:48:50;;;;;;;9.57;3.08;;;23.40;63.30;;;;;;5362478;26;86293;-60
2024/04/13 08:51:17;;;;;;;7.75;3.10;;;23.30;63.30;;;;;;5333365;26;88873;-59
2024/04/13 08:53:43;;;;;;;8.55;2.97;;;23.40;63.00;;;;;;5351814;26;87268;-59
2024/04/13 08:56:11;;;;;;;9.23;3.45;;;23.30;63.00;;;;;;5366880;26;87030;-59
2024/04/13 08:58:39;;;;;;;8.02;3.28;;;23.30;63.30;;;;;;5394126;26;86191;-59
2024/04/13 09:01:11;;;;;;;8.68;3.33;;;23.30;64.10;;;;;;5332697;26;87173;-59
2024/04/13 09:03:37;;;;;;;9.40;3.85;;;23.20;68.90;;;;;;5325519;26;86463;-60
2024/04/13 09:06:04;;;;;;;13.82;3.75;;;23.30;70.20;;;;;;5367173;26;86443;-59
2024/04/13 09:08:32;;;;;;;8.18;3.10;;;23.40;79.00;;;;;;5332711;26;89358;-59
2024/04/13 09:11:03;;;;;;;9.65;3.17;;;23.30;76.40;;;;;;5304214;26;86983;-59
2024/04/13 09:13:31;;;;;;;4.97;3.15;;;23.30;80.00;;;;;;5332550;26;86181;-60
2024/04/13 09:15:58;;;;;;;7.13;3.25;;;23.20;78.90;;;;;;5333123;26;86314;-59
2024/04/13 09:18:24;;;;;;;4.25;2.42;;;23.20;76.70;;;;;;5333676;26;90440;-60
2024/04/13 09:20:50;;;;;;;12.75;4.72;;;23.30;77.00;;;;;;5365660;26;87469;-60
2024/04/13 09:23:18;;;;;;;24.90;6.47;;;23.20;74.70;;;;;;5367155;26;86603;-59
2024/04/13 09:25:44;;;;;;;21.70;6.60;;;23.30;72.30;;;;;;5366177;26;85713;-59
2024/04/13 09:28:10;;;;;;;16.73;5.85;;;23.40;70.50;;;;;;5325141;26;86283;-59
2024/04/13 09:30:36;;;;;;;21.08;6.50;;;23.40;69.20;;;;;;5364972;26;87603;-59
2024/04/13 09:33:03;;;;;;;18.10;5.78;;;23.40;68.10;;;;;;5366983;26;86040;-60
2024/04/13 09:35:30;;;;;;;17.25;5.53;;;23.30;68.40;;;;;;5384921;25;85635;-60
2024/04/13 09:37:59;;;;;;;13.25;5.35;;;23.30;68.60;;;;;;5394339;26;86862;-60
2024/04/13 09:40:31;;;;;;;;;;;23.30;67.80;;;;;;5398658;26;86423;-60
2024/04/13 09:42:58;;;;;;;17.75;5.88;;;23.30;67.70;;;;;;5397593;26;86209;-59
2024/04/13 09:45:24;;;;;;;20.95;5.03;;;23.30;67.30;;;;;;5368453;26;87265;-60
2024/04/13 09:47:52;;;;;;;12.88;4.20;;;23.40;67.30;;;;;;5397464;26;87224;-60
2024/04/13 09:50:18;;;;;;;10.77;4.13;;;23.40;66.70;;;;;;5371577;26;86648;-59
2024/04/13 09:52:46;;;;;;;10.40;4.18;;;23.40;66.20;;;;;;5364658;26;85972;-60
2024/04/13 09:55:12;;;;;;;11.35;3.50;;;23.40;66.30;;;;;;5334311;26;86436;-59
2024/04/13 09:57:39;;;;;;;8.02;3.35;;;23.40;66.10;;;;;;5328997;26;88422;-60
2024/04/13 10:00:07;;;;;;;14.48;4.55;;;23.30;65.90;;;;;;5324766;26;85924;-59
2024/04/13 10:02:33;;;;;;;10.82;4.28;;;23.40;65.60;;;;;;5365218;26;86150;-60
2024/04/13 10:05:01;;;;;;;12.18;3.80;;;23.60;66.10;;;;;;5366061;26;85348;-59
2024/04/13 10:07:28;;;;;;;8.15;2.83;;;23.60;65.80;;;;;;5363417;26;88138;-59
2024/04/13 10:09:58;;;;;;;11.95;3.75;;;23.70;65.90;;;;;;5332411;26;87310;-59
2024/04/13 10:12:31;;;;;;;10.30;2.75;;;23.60;65.10;;;;;;5333919;26;86286;-59
2024/04/13 10:15:00;;;;;;;6.68;3.55;;;23.60;65.30;;;;;;5365165;26;90025;-59
2024/04/13 10:17:26;;;;;;;13.23;3.78;;;23.50;65.90;;;;;;5334806;26;87503;-59
2024/04/13 10:19:52;;;;;;;9.30;3.28;;;23.40;65.90;;;;;;5336738;26;89098;-59
2024/04/13 10:22:21;;;;;;;9.82;3.00;;;23.40;66.70;;;;;;5338085;26;85781;-59
2024/04/13 10:24:50;;;;;;;8.00;3.30;;;23.40;66.90;;;;;;5337926;26;85954;-59
2024/04/13 10:27:20;;;;;;;;;;;23.50;66.00;;;;;;5338244;26;87129;-59
2024/04/13 10:29:48;;;;;;;8.38;3.10;;;23.50;65.70;;;;;;5335879;26;87965;-59
2024/04/13 10:32:22;;;;;;;8.32;2.95;;;23.40;65.80;;;;;;5335049;26;86751;-59
2024/04/13 10:34:49;;;;;;;8.00;3.33;;;23.40;65.40;;;;;;5368230;26;86530;-59
2024/04/13 10:37:37;;;;;;;5.82;2.45;;;23.50;65.70;;;;;;5366310;26;86481;-59
2024/04/13 10:40:06;;;;;;;8.23;2.90;;;23.40;65.20;;;;;;5368329;26;86979;-59
2024/04/13 10:42:42;;;;;;;11.17;2.77;;;23.40;65.60;;;;;;5366260;26;85818;-60
2024/04/13 10:45:11;;;;;;;7.32;2.83;;;23.40;65.80;;;;;;5370430;26;85755;-59
2024/04/13 10:47:40;;;;;;;10.65;3.33;;;23.40;65.80;;;;;;5342508;26;87832;-60
2024/04/13 10:50:13;;;;;;;4.43;2.13;;;23.40;65.90;;;;;;5365519;26;86497;-59
2024/04/13 10:52:39;;;;;;;5.15;2.63;;;23.40;65.70;;;;;;5369443;26;86024;-59
2024/04/13 10:55:05;;;;;;;7.25;2.85;;;23.40;66.10;;;;;;5366194;26;86610;-61
2024/04/13 10:57:32;;;;;;;6.88;2.63;;;23.50;66.00;;;;;;5360421;25;88017;-61
2024/04/13 10:59:58;;;;;;;7.95;2.38;;;23.40;65.90;;;;;;5367755;26;87556;-61
2024/04/13 11:02:23;;;;;;;9.68;3.35;;;23.40;66.40;;;;;;5346244;26;86227;-60
2024/04/13 11:04:49;;;;;;;10.73;3.10;;;23.50;66.50;;;;;;5369158;26;87966;-61
2024/04/13 11:07:16;;;;;;;10.30;3.90;;;23.50;66.40;;;;;;5355128;26;87688;-60
2024/04/13 11:09:42;;;;;;;6.57;2.95;;;23.50;66.70;;;;;;5366694;26;86393;-61
2024/04/13 11:12:14;;;;;;;7.20;2.78;;;23.50;66.90;;;;;;5378231;26;85754;-60
2024/04/13 11:14:40;;;;;;;9.27;3.28;;;23.50;67.40;;;;;;5367711;26;85354;-61
2024/04/13 11:17:06;;;;;;;10.57;3.10;;;23.40;67.30;;;;;;5336309;26;86342;-61
2024/04/13 11:19:32;;;;;;;8.82;3.20;;;23.40;67.40;;;;;;5335629;26;87374;-61
2024/04/13 11:22:00;;;;;;;5.65;2.50;;;23.50;67.60;;;;;;5324519;26;86984;-60
2024/04/13 11:24:27;;;;;;;9.25;3.63;;;23.50;67.60;;;;;;5335447;26;88729;-61
2024/04/13 11:26:53;;;;;;;7.80;3.25;;;23.40;67.30;;;;;;5343587;26;87440;-61
2024/04/13 11:29:20;;;;;;;7.38;3.13;;;23.50;67.40;;;;;;5397427;26;87075;-59
2024/04/13 11:31:49;;;;;;;9.80;2.67;;;23.60;67.30;;;;;;5367261;26;86084;-62
2024/04/13 11:34:15;;;;;;;13.90;3.83;;;23.70;67.70;;;;;;5333908;26;88494;-66
2024/04/13 11:36:40;;;;;;;11.00;2.70;;;23.70;67.80;;;;;;5325409;26;87940;-68
2024/04/13 11:39:09;;;;;;;10.10;2.90;;;23.70;68.10;;;;;;5402440;26;86192;-65
2024/04/13 11:41:36;;;;;;;5.83;2.50;;;23.70;68.60;;;;;;5354468;26;86500;-66
2024/04/13 11:44:02;;;;;;;6.47;2.15;;;23.70;68.50;;;;;;5365938;26;86304;-65
2024/04/13 11:46:29;;;;;;;7.55;2.97;;;23.70;68.50;;;;;;5332082;26;88557;-58
2024/04/13 11:48:54;;;;;;;5.85;2.80;;;23.70;69.00;;;;;;5365633;26;88153;-59
2024/04/13 11:51:20;;;;;;;17.70;2.78;;;23.70;68.50;;;;;;5337732;26;85787;-64
2024/04/13 11:53:47;;;;;;;7.28;3.15;;;23.70;68.90;;;;;;5367994;26;86307;-58
2024/04/13 11:56:13;;;;;;;6.45;2.55;;;23.70;68.50;;;;;;5367938;26;86264;-65
2024/04/13 11:58:48;;;;;;;6.45;2.60;;;23.70;68.20;;;;;;5346968;26;87351;-63
2024/04/13 12:01:15;;;;;;;12.40;3.70;;;23.80;68.60;;;;;;5335011;26;85703;-64
2024/04/13 12:03:40;;;;;;;11.18;3.38;;;23.80;68.10;;;;;;5335178;26;86846;-63
2024/04/13 12:06:06;;;;;;;6.95;3.05;;;23.80;68.30;;;;;;5336529;26;87911;-68
2024/04/13 12:08:32;;;;;;;9.32;3.08;;;23.80;67.90;;;;;;5366741;26;86836;-58
2024/04/13 12:10:59;;;;;;;8.93;2.80;;;23.80;68.70;;;;;;5333733;26;86942;-62
2024/04/13 12:13:26;;;;;;;4.45;2.50;;;23.90;68.20;;;;;;5306663;26;87253;-57
2024/04/13 12:15:52;;;;;;;3.95;2.13;;;23.80;68.10;;;;;;5339607;26;86171;-58
2024/04/13 12:18:19;;;;;;;7.10;2.03;;;23.80;68.10;;;;;;5318876;26;86878;-58
2024/04/13 12:20:45;;;;;;;7.65;2.70;;;23.90;68.00;;;;;;5348287;26;86610;-58
2024/04/13 12:23:11;;;;;;;5.28;2.30;;;23.90;67.80;;;;;;5341575;26;86457;-57
2024/04/13 12:25:38;;;;;;;9.05;2.63;;;23.90;68.00;;;;;;5349314;26;86678;-60
2024/04/13 12:28:07;;;;;;;5.63;2.33;;;23.80;67.70;;;;;;5335883;26;86882;-60
2024/04/13 12:30:34;;;;;;;5.40;2.50;;;23.80;68.50;;;;;;5381078;26;86267;-60
2024/04/13 12:32:59;;;;;;;3.90;2.47;;;23.70;68.50;;;;;;5382313;26;86165;-60
2024/04/13 12:35:26;;;;;;;10.27;2.85;;;23.70;67.60;;;;;;5336535;26;87337;-60
2024/04/13 12:37:53;;;;;;;7.30;2.72;;;23.70;67.10;;;;;;5378538;26;86531;-59
2024/04/13 12:40:19;;;;;;;6.53;2.72;;;23.60;67.10;;;;;;5339260;26;85924;-59
2024/04/13 12:42:45;;;;;;;6.60;3.03;;;23.70;68.60;;;;;;5345180;26;86147;-60
2024/04/13 12:45:11;;;;;;;5.22;2.65;;;23.60;69.10;;;;;;5379469;26;86471;-59